createdAt,value
2022-12-05T00:00:19.188Z,2.80
2022-12-05T00:02:49.182Z,2.80
2022-12-05T00:05:19.207Z,2.80
2022-12-05T00:07:51.965Z,2.80
2022-12-05T00:10:21.990Z,2.80
2022-12-05T00:12:51.868Z,2.80
2022-12-05T00:15:21.701Z,2.80
2022-12-05T00:17:51.714Z,2.80
2022-12-05T00:20:21.702Z,2.80
2022-12-05T00:22:54.139Z,2.80
2022-12-05T00:25:24.005Z,2.80
2022-12-05T00:27:53.888Z,2.80
2022-12-05T00:30:23.791Z,2.80
2022-12-05T00:32:53.627Z,2.90
2022-12-05T00:35:23.501Z,2.80
2022-12-05T00:37:55.891Z,2.80
2022-12-05T00:40:25.733Z,2.90
2022-12-05T00:42:55.566Z,2.90
2022-12-05T00:45:25.607Z,2.80
2022-12-05T00:47:55.441Z,2.90
2022-12-05T00:50:25.289Z,2.90
2022-12-05T00:52:57.726Z,2.90
2022-12-05T00:55:27.558Z,2.90
2022-12-05T00:57:57.409Z,2.90
2022-12-05T01:00:27.441Z,2.90
2022-12-05T01:02:58.208Z,2.90
2022-12-05T01:05:28.036Z,2.90
2022-12-05T01:08:00.508Z,2.90
2022-12-05T01:10:30.519Z,2.90
2022-12-05T01:13:00.370Z,2.90
2022-12-05T01:15:30.226Z,2.90
2022-12-05T01:18:00.087Z,2.90
2022-12-05T01:20:29.946Z,2.90
2022-12-05T01:23:02.367Z,2.90
2022-12-05T01:25:32.206Z,2.90
2022-12-05T01:28:02.122Z,2.90
2022-12-05T01:30:31.959Z,2.90
2022-12-05T01:33:02.559Z,2.90
2022-12-05T01:35:34.669Z,2.90
2022-12-05T01:38:08.102Z,2.90
2022-12-05T01:40:38.785Z,2.90
2022-12-05T01:43:17.166Z,2.90
2022-12-05T01:45:49.141Z,2.90
2022-12-05T01:48:25.981Z,2.90
2022-12-05T01:50:56.265Z,2.90
2022-12-05T01:53:29.673Z,2.90
2022-12-05T01:56:00.207Z,2.90
2022-12-05T01:58:35.674Z,2.90
2022-12-05T02:01:05.721Z,2.90
2022-12-05T02:03:36.517Z,2.90
2022-12-05T02:06:07.295Z,2.90
2022-12-05T02:08:40.185Z,2.90
2022-12-05T02:11:11.414Z,2.90
2022-12-05T02:14:06.935Z,2.90
2022-12-05T02:16:46.343Z,2.90
2022-12-05T02:19:48.432Z,2.90
2022-12-05T02:22:49.188Z,2.90
2022-12-05T02:25:51.197Z,2.90
2022-12-05T02:29:03.469Z,2.90
2022-12-05T02:31:40.446Z,2.90
2022-12-05T02:34:18.686Z,2.90
2022-12-05T02:36:57.549Z,2.90
2022-12-05T02:39:40.034Z,2.90
2022-12-05T02:42:16.202Z,2.90
2022-12-05T02:44:51.675Z,2.90
2022-12-05T02:47:29.495Z,2.90
2022-12-05T02:50:00.981Z,2.90
2022-12-05T02:52:33.170Z,2.90
2022-12-05T02:55:04.426Z,2.90
2022-12-05T02:57:35.803Z,2.90
2022-12-05T03:00:06.710Z,2.90
2022-12-05T03:02:42.903Z,2.90
2022-12-05T03:05:23.180Z,2.90
2022-12-05T03:07:56.582Z,2.90
2022-12-05T03:10:30.893Z,2.90
2022-12-05T03:13:07.709Z,2.90
2022-12-05T03:15:41.816Z,2.90
2022-12-05T03:18:21.322Z,2.90
2022-12-05T03:20:57.805Z,2.90
2022-12-05T03:23:33.306Z,2.90
2022-12-05T03:26:14.378Z,2.90
2022-12-05T03:28:58.481Z,2.90
2022-12-05T03:31:38.398Z,2.90
2022-12-05T03:34:15.610Z,2.90
2022-12-05T03:36:51.430Z,2.90
2022-12-05T03:39:27.026Z,2.90
2022-12-05T03:42:03.798Z,2.90
2022-12-05T03:44:40.685Z,2.90
2022-12-05T03:47:16.636Z,2.90
2022-12-05T03:49:53.903Z,2.90
2022-12-05T03:52:30.382Z,2.90
2022-12-05T03:55:04.482Z,2.90
2022-12-05T03:57:39.436Z,2.90
2022-12-05T04:00:14.562Z,2.90
2022-12-05T04:02:49.433Z,2.90
2022-12-05T04:05:27.709Z,2.90
2022-12-05T04:08:04.539Z,2.90
2022-12-05T04:10:48.657Z,2.90
2022-12-05T04:13:22.320Z,2.90
2022-12-05T04:16:11.987Z,2.90
2022-12-05T04:18:49.794Z,2.90
2022-12-05T04:21:36.739Z,2.90
2022-12-05T04:24:20.537Z,2.90
2022-12-05T04:26:58.085Z,2.90
2022-12-05T04:29:35.145Z,2.90
2022-12-05T04:32:11.868Z,2.90
2022-12-05T04:34:44.550Z,2.90
2022-12-05T04:37:22.434Z,2.90
2022-12-05T04:39:59.843Z,2.90
2022-12-05T04:42:34.092Z,2.90
2022-12-05T04:45:09.285Z,2.90
2022-12-05T04:47:45.074Z,2.90
2022-12-05T04:50:17.258Z,2.90
2022-12-05T04:52:54.498Z,2.90
2022-12-05T04:55:29.570Z,2.90
2022-12-05T04:58:09.066Z,2.90
2022-12-05T05:00:49.075Z,2.90
2022-12-05T05:03:26.235Z,2.90
2022-12-05T05:05:59.207Z,2.90
2022-12-05T05:08:32.625Z,2.90
2022-12-05T05:11:11.985Z,2.90
2022-12-05T05:13:42.121Z,2.90
2022-12-05T05:16:18.107Z,2.90
2022-12-05T05:18:48.545Z,2.90
2022-12-05T05:21:22.363Z,2.90
2022-12-05T05:23:55.271Z,2.90
2022-12-05T05:26:26.494Z,2.90
2022-12-05T05:28:57.020Z,2.90
2022-12-05T05:31:27.224Z,2.90
2022-12-05T05:34:03.259Z,2.90
2022-12-05T05:36:38.223Z,2.90
2022-12-05T05:39:16.729Z,2.90
2022-12-05T05:41:46.985Z,2.90
2022-12-05T05:44:16.849Z,2.90
2022-12-05T05:46:46.871Z,2.90
2022-12-05T05:49:16.754Z,2.90
2022-12-05T05:51:46.630Z,2.90
2022-12-05T05:54:19.071Z,2.90
2022-12-05T05:56:48.991Z,2.90
2022-12-05T05:59:18.907Z,2.90
2022-12-05T06:01:48.831Z,2.90
2022-12-05T06:04:18.844Z,2.90
2022-12-05T06:06:48.902Z,2.90
2022-12-05T06:09:21.416Z,2.90
2022-12-05T06:11:51.358Z,2.90
2022-12-05T06:14:21.386Z,2.90
2022-12-05T06:16:51.562Z,2.90
2022-12-05T06:19:21.501Z,2.90
2022-12-05T06:21:52.998Z,2.90
2022-12-05T06:24:25.535Z,2.90
2022-12-05T06:26:55.640Z,2.90
2022-12-05T06:29:28.257Z,2.90
2022-12-05T06:32:01.167Z,2.90
2022-12-05T06:34:32.635Z,2.90
2022-12-05T06:37:03.357Z,2.90
2022-12-05T06:39:35.880Z,3.00
2022-12-05T06:42:05.846Z,3.00
2022-12-05T06:44:35.810Z,2.90
2022-12-05T06:47:05.799Z,3.00
2022-12-05T06:49:38.037Z,3.00
2022-12-05T06:52:08.403Z,2.90
2022-12-05T06:54:40.911Z,3.00
2022-12-05T06:57:10.818Z,2.90
2022-12-05T06:59:40.714Z,2.90
2022-12-05T07:02:09.727Z,2.90
2022-12-05T07:04:39.605Z,2.90
2022-12-05T07:07:09.807Z,2.90
2022-12-05T07:09:54.276Z,2.90
2022-12-05T07:12:24.225Z,2.90
2022-12-05T07:14:54.205Z,2.90
2022-12-05T07:17:24.942Z,2.90
2022-12-05T07:19:56.098Z,2.90
2022-12-05T07:22:26.853Z,2.90
2022-12-05T07:24:59.301Z,2.90
2022-12-05T07:27:29.225Z,2.90
2022-12-05T07:29:59.481Z,2.90
2022-12-05T07:32:29.567Z,2.90
2022-12-05T07:34:59.431Z,2.90
2022-12-05T07:37:29.408Z,2.90
2022-12-05T07:40:01.874Z,3.00
2022-12-05T07:42:31.771Z,2.90
2022-12-05T07:45:01.638Z,2.90
2022-12-05T07:47:33.248Z,2.90
2022-12-05T07:50:03.218Z,2.90
2022-12-05T07:52:33.055Z,2.90
2022-12-05T07:55:05.596Z,2.90
2022-12-05T07:57:35.481Z,2.90
2022-12-05T08:00:06.915Z,2.90
2022-12-05T08:02:40.956Z,2.90
2022-12-05T08:05:11.591Z,2.90
2022-12-05T08:07:41.535Z,2.90
2022-12-05T08:10:14.483Z,2.90
2022-12-05T08:12:44.352Z,2.90
2022-12-05T08:15:14.618Z,2.90
2022-12-05T08:17:44.506Z,2.90
2022-12-05T08:20:16.077Z,2.90
2022-12-05T08:22:46.110Z,2.90
2022-12-05T08:25:18.739Z,2.90
2022-12-05T08:27:48.610Z,2.90
2022-12-05T08:30:18.616Z,2.90
2022-12-05T08:32:48.477Z,2.90
2022-12-05T08:35:18.611Z,2.90
2022-12-05T08:37:48.481Z,2.90
2022-12-05T08:40:21.109Z,2.90
2022-12-05T08:42:50.930Z,2.90
2022-12-05T08:45:20.926Z,2.90
2022-12-05T08:47:50.777Z,2.90
2022-12-05T08:50:20.855Z,2.90
2022-12-05T08:52:50.682Z,2.90
2022-12-05T08:55:23.410Z,2.90
2022-12-05T08:57:53.244Z,3.00
2022-12-05T09:00:24.031Z,2.90
2022-12-05T09:02:54.378Z,2.90
2022-12-05T09:05:28.736Z,2.90
2022-12-05T09:07:59.929Z,3.00
2022-12-05T09:10:32.875Z,2.90
2022-12-05T09:13:02.720Z,3.00
2022-12-05T09:15:32.641Z,3.00
2022-12-05T09:18:02.488Z,3.00
2022-12-05T09:20:32.324Z,3.00
2022-12-05T09:23:02.170Z,3.00
2022-12-05T09:25:34.547Z,3.00
2022-12-05T09:28:04.397Z,3.00
2022-12-05T09:30:34.258Z,3.00
2022-12-05T09:33:04.102Z,3.00
2022-12-05T09:35:33.967Z,3.00
2022-12-05T09:38:03.793Z,3.00
2022-12-05T09:40:36.371Z,3.00
2022-12-05T09:43:09.897Z,3.00
2022-12-05T09:45:43.019Z,3.00
2022-12-05T09:48:18.198Z,3.00
2022-12-05T09:50:52.213Z,3.00
2022-12-05T09:53:30.743Z,3.10
2022-12-05T09:56:07.979Z,3.00
2022-12-05T09:58:46.974Z,3.00
2022-12-05T10:01:36.694Z,3.10
2022-12-05T10:04:29.210Z,3.00
2022-12-05T10:07:07.206Z,3.10
2022-12-05T10:09:57.519Z,3.10
2022-12-05T10:12:51.030Z,3.10
2022-12-05T10:15:37.203Z,3.10
2022-12-05T10:18:20.608Z,3.10
2022-12-05T10:20:55.326Z,3.10
2022-12-05T10:23:56.046Z,3.10
2022-12-05T10:26:20.159Z,3.10
2022-12-05T10:28:59.418Z,3.10
2022-12-05T10:31:34.228Z,3.10
2022-12-05T10:34:07.103Z,3.10
2022-12-05T10:36:37.414Z,3.10
2022-12-05T10:39:11.377Z,3.20
2022-12-05T10:41:41.826Z,3.20
2022-12-05T10:44:14.317Z,3.20
2022-12-05T10:46:44.331Z,3.20
2022-12-05T10:49:15.572Z,3.30
2022-12-05T10:51:45.565Z,3.30
2022-12-05T10:54:23.665Z,3.30
2022-12-05T10:56:56.527Z,3.30
2022-12-05T10:59:48.185Z,3.30
2022-12-05T11:02:28.955Z,3.30
2022-12-05T11:05:00.345Z,3.30
2022-12-05T11:07:34.777Z,3.30
2022-12-05T11:10:07.935Z,3.30
2022-12-05T11:12:41.834Z,3.30
2022-12-05T11:15:26.430Z,3.30
2022-12-05T11:17:58.773Z,3.30
2022-12-05T11:20:43.145Z,3.30
2022-12-05T11:23:26.970Z,3.30
2022-12-05T11:25:57.651Z,3.30
2022-12-05T11:28:40.629Z,3.30
2022-12-05T11:31:28.738Z,3.30
2022-12-05T11:34:16.342Z,3.40
2022-12-05T11:36:53.309Z,3.40
2022-12-05T11:39:23.200Z,3.40
2022-12-05T11:42:25.751Z,3.40
2022-12-05T11:45:43.389Z,3.40
2022-12-05T11:48:37.450Z,3.40
2022-12-05T11:51:23.626Z,3.40
2022-12-05T11:55:04.052Z,3.30
2022-12-05T11:58:03.034Z,3.30
2022-12-05T12:00:39.983Z,3.40
2022-12-05T12:03:41.729Z,3.40
2022-12-05T12:06:29.944Z,3.40
2022-12-05T12:09:19.550Z,3.40
2022-12-05T12:11:58.346Z,3.40
2022-12-05T12:14:39.015Z,3.40
2022-12-05T12:17:19.203Z,3.40
2022-12-05T12:20:13.658Z,3.40
2022-12-05T12:23:06.550Z,3.40
2022-12-05T12:25:47.861Z,3.40
2022-12-05T12:28:34.022Z,3.40
2022-12-05T12:31:23.664Z,3.40
2022-12-05T12:34:01.758Z,3.40
2022-12-05T12:36:39.810Z,3.40
2022-12-05T12:39:29.311Z,3.40
2022-12-05T12:42:20.940Z,3.40
2022-12-05T12:45:30.366Z,3.40
2022-12-05T12:48:26.200Z,3.40
2022-12-05T12:50:57.790Z,3.50
2022-12-05T12:54:00.643Z,3.50
2022-12-05T12:56:42.495Z,3.50
2022-12-05T12:59:43.933Z,3.50
2022-12-05T13:02:21.306Z,3.50
2022-12-05T13:04:57.327Z,3.50
2022-12-05T13:07:33.935Z,3.50
2022-12-05T13:10:16.389Z,3.50
2022-12-05T13:12:47.975Z,3.50
2022-12-05T13:15:21.718Z,3.50
2022-12-05T13:17:52.278Z,3.60
2022-12-05T13:20:25.503Z,3.60
2022-12-05T13:22:56.877Z,3.60
2022-12-05T13:25:34.085Z,3.60
2022-12-05T13:28:06.403Z,3.60
2022-12-05T13:30:56.690Z,3.60
2022-12-05T13:33:29.110Z,3.60
2022-12-05T13:36:17.227Z,3.60
2022-12-05T13:38:59.959Z,3.60
2022-12-05T13:41:58.352Z,3.60
2022-12-05T13:44:37.327Z,3.60
2022-12-05T13:47:10.211Z,3.60
2022-12-05T13:49:49.304Z,3.60
2022-12-05T13:52:24.974Z,3.60
2022-12-05T13:55:01.513Z,3.60
2022-12-05T13:57:54.791Z,3.60
2022-12-05T14:00:40.478Z,3.60
2022-12-05T14:03:20.198Z,3.60
2022-12-05T14:05:53.449Z,3.60
2022-12-05T14:08:56.813Z,3.70
2022-12-05T14:11:26.898Z,3.70
2022-12-05T14:14:04.585Z,3.70
2022-12-05T14:16:47.285Z,3.70
2022-12-05T14:19:39.279Z,3.70
2022-12-05T14:22:48.214Z,3.70
2022-12-05T14:25:33.655Z,3.70
2022-12-05T14:28:19.387Z,3.70
2022-12-05T14:31:16.890Z,3.70
2022-12-05T14:33:47.053Z,3.70
2022-12-05T14:36:29.136Z,3.70
2022-12-05T14:38:59.066Z,3.70
2022-12-05T14:41:37.974Z,3.70
2022-12-05T14:44:21.393Z,3.70
2022-12-05T14:46:53.848Z,3.70
2022-12-05T14:49:44.039Z,3.70
2022-12-05T14:52:24.638Z,3.70
2022-12-05T14:54:57.445Z,3.70
2022-12-05T14:57:27.860Z,3.70
2022-12-05T15:00:02.205Z,3.70
2022-12-05T15:02:39.918Z,3.70
2022-12-05T15:05:27.490Z,3.70
2022-12-05T15:07:58.681Z,3.70
2022-12-05T15:10:34.740Z,3.70
2022-12-05T15:13:12.145Z,3.70
2022-12-05T15:15:47.821Z,3.70
2022-12-05T15:18:27.285Z,3.80
2022-12-05T15:21:01.825Z,3.80
2022-12-05T15:23:46.677Z,3.80
2022-12-05T15:29:19.191Z,3.80
2022-12-05T15:31:51.946Z,3.80
2022-12-05T15:34:30.877Z,3.80
2022-12-05T15:37:09.439Z,3.80
2022-12-05T15:39:56.227Z,3.80
2022-12-05T15:42:30.133Z,3.80
2022-12-05T15:45:21.729Z,3.80
2022-12-05T15:47:54.263Z,3.80
2022-12-05T15:50:35.851Z,3.80
2022-12-05T15:53:12.859Z,3.80
2022-12-05T15:55:48.124Z,3.70
2022-12-05T15:58:27.072Z,3.80
2022-12-05T16:01:02.846Z,3.80
2022-12-05T16:03:42.855Z,3.80
2022-12-05T16:06:20.774Z,3.80
2022-12-05T16:08:52.361Z,3.80
2022-12-05T16:11:23.238Z,3.80
2022-12-05T16:13:58.098Z,3.80
2022-12-05T16:16:32.929Z,3.80
2022-12-05T16:19:08.248Z,3.80
2022-12-05T16:21:43.338Z,3.80
2022-12-05T16:24:21.624Z,3.80
2022-12-05T16:27:02.238Z,3.80
2022-12-05T16:29:35.147Z,3.80
2022-12-05T16:32:09.248Z,3.80
2022-12-05T16:34:39.134Z,3.80
2022-12-05T16:37:21.991Z,3.80
2022-12-05T16:39:51.962Z,3.80
2022-12-05T16:42:28.401Z,3.80
2022-12-05T16:45:07.475Z,3.80
2022-12-05T16:47:57.618Z,3.80
2022-12-05T16:50:34.850Z,3.80
2022-12-05T16:53:21.234Z,3.80
2022-12-05T16:55:51.675Z,3.80
2022-12-05T16:58:26.741Z,3.90
2022-12-05T17:01:04.173Z,3.90
2022-12-05T17:03:35.632Z,3.90
2022-12-05T17:06:06.100Z,3.90
2022-12-05T17:08:38.566Z,3.90
2022-12-05T17:11:08.852Z,3.90
2022-12-05T17:13:38.863Z,3.80
2022-12-05T17:16:09.369Z,3.90
2022-12-05T17:18:41.654Z,3.90
2022-12-05T17:21:18.372Z,3.90
2022-12-05T17:23:51.589Z,3.90
2022-12-05T17:26:23.980Z,3.90
2022-12-05T17:28:54.368Z,3.90
2022-12-05T17:31:26.705Z,3.90
2022-12-05T17:33:57.611Z,3.90
2022-12-05T17:36:27.455Z,3.90
2022-12-05T17:38:59.846Z,3.90
2022-12-05T17:41:29.682Z,3.90
2022-12-05T17:43:59.569Z,3.90
2022-12-05T17:46:29.589Z,3.90
2022-12-05T17:49:00.320Z,3.90
2022-12-05T17:51:30.549Z,3.90
2022-12-05T17:54:02.977Z,3.90
2022-12-05T17:56:34.958Z,3.90
2022-12-05T17:59:07.436Z,3.90
2022-12-05T18:01:37.517Z,3.90
2022-12-05T18:04:09.057Z,3.90
2022-12-05T18:06:39.501Z,3.90
2022-12-05T18:09:12.036Z,3.90
2022-12-05T18:11:41.866Z,3.90
2022-12-05T18:14:11.740Z,3.90
2022-12-05T18:16:41.751Z,3.90
2022-12-05T18:19:11.626Z,3.90
2022-12-05T18:21:41.545Z,4.00
2022-12-05T18:24:14.079Z,3.90
2022-12-05T18:26:44.793Z,4.00
2022-12-05T18:29:14.614Z,4.00
2022-12-05T18:31:44.575Z,3.90
2022-12-05T18:34:14.451Z,4.00
2022-12-05T18:36:44.488Z,4.00
2022-12-05T18:39:17.554Z,4.00
2022-12-05T18:41:47.433Z,4.00
2022-12-05T18:44:17.407Z,4.00
2022-12-05T18:46:47.431Z,4.00
2022-12-05T18:49:18.603Z,4.00
2022-12-05T18:51:48.655Z,4.00
2022-12-05T18:54:21.342Z,4.00
2022-12-05T18:56:53.027Z,4.00
2022-12-05T18:59:25.761Z,4.00
2022-12-05T19:01:55.709Z,4.00
2022-12-05T19:04:25.718Z,4.00
2022-12-05T19:06:57.752Z,4.00
2022-12-05T19:09:33.634Z,4.00
2022-12-05T19:12:03.601Z,4.00
2022-12-05T19:14:35.211Z,4.00
2022-12-05T19:17:05.542Z,4.00
2022-12-05T19:19:35.530Z,4.10
2022-12-05T19:22:05.434Z,4.00
2022-12-05T19:24:37.910Z,4.00
2022-12-05T19:27:07.902Z,4.10
2022-12-05T19:29:38.034Z,4.10
2022-12-05T19:32:08.529Z,4.10
2022-12-05T19:34:38.462Z,4.10
2022-12-05T19:37:08.332Z,4.10
2022-12-05T19:39:42.791Z,4.10
2022-12-05T19:42:12.819Z,4.10
2022-12-05T19:44:42.766Z,4.10
2022-12-05T19:47:12.623Z,4.10
2022-12-05T19:49:42.482Z,4.10
2022-12-05T19:52:13.053Z,4.10
2022-12-05T19:54:45.583Z,4.10
2022-12-05T19:57:18.059Z,4.10
2022-12-05T19:59:48.424Z,4.10
2022-12-05T20:02:18.283Z,4.10
2022-12-05T20:04:48.155Z,4.10
2022-12-05T20:07:18.783Z,4.10
2022-12-05T20:09:51.279Z,4.10
2022-12-05T20:12:21.642Z,4.10
2022-12-05T20:14:51.478Z,4.10
2022-12-05T20:17:21.726Z,4.10
2022-12-05T20:19:51.624Z,4.10
2022-12-05T20:22:21.523Z,4.10
2022-12-05T20:24:53.950Z,4.10
2022-12-05T20:27:23.776Z,4.10
2022-12-05T20:29:53.694Z,4.10
2022-12-05T20:32:23.539Z,4.20
2022-12-05T20:34:53.686Z,4.10
2022-12-05T20:37:23.571Z,4.20
2022-12-05T20:39:56.122Z,4.10
2022-12-05T20:42:26.126Z,4.20
2022-12-05T20:44:55.964Z,4.20
2022-12-05T20:47:25.924Z,4.20
2022-12-05T20:49:56.080Z,4.20
2022-12-05T20:52:26.434Z,4.20
2022-12-05T20:54:58.884Z,4.20
2022-12-05T20:57:29.723Z,4.20
2022-12-05T21:02:26.077Z,4.20
2022-12-05T21:04:56.005Z,4.10
2022-12-05T21:07:25.905Z,4.10
2022-12-05T21:10:01.043Z,4.00
2022-12-05T21:12:34.733Z,4.00
2022-12-05T21:15:04.689Z,4.00
2022-12-05T21:17:35.402Z,4.00
2022-12-05T21:20:05.438Z,3.90
2022-12-05T21:22:35.306Z,3.90
2022-12-05T21:25:08.479Z,3.90
2022-12-05T21:27:38.359Z,3.80
2022-12-05T21:30:10.954Z,3.80
2022-12-05T21:32:40.870Z,3.80
2022-12-05T21:35:11.983Z,3.80
2022-12-05T21:37:42.945Z,3.70
2022-12-05T21:40:15.786Z,3.70
2022-12-05T21:42:45.682Z,3.70
2022-12-05T21:45:15.679Z,3.70
2022-12-05T21:47:45.555Z,3.70
2022-12-05T21:50:15.643Z,3.70
2022-12-05T21:52:45.574Z,3.70
2022-12-05T21:55:18.198Z,3.60
2022-12-05T21:57:48.168Z,3.60
2022-12-05T22:00:18.906Z,3.60
2022-12-05T22:02:50.166Z,3.60
2022-12-05T22:05:20.047Z,3.50
2022-12-05T22:07:50.334Z,3.50
2022-12-05T22:10:22.892Z,3.60
2022-12-05T22:12:52.797Z,3.50
2022-12-05T22:15:22.893Z,3.50
2022-12-05T22:17:52.926Z,3.50
2022-12-05T22:20:22.808Z,3.50
2022-12-05T22:22:52.850Z,3.50
2022-12-05T22:25:25.371Z,3.50
2022-12-05T22:27:55.249Z,3.40
2022-12-05T22:30:28.355Z,3.40
2022-12-05T22:32:59.230Z,3.40
2022-12-05T22:35:29.143Z,3.40
2022-12-05T22:37:58.982Z,3.40
2022-12-05T22:40:31.446Z,3.40
2022-12-05T22:43:01.319Z,3.40
2022-12-05T22:45:31.203Z,3.30
2022-12-05T22:48:01.055Z,3.40
2022-12-05T22:50:30.943Z,3.40
2022-12-05T22:53:00.789Z,3.40
2022-12-05T22:55:35.089Z,3.40
2022-12-05T22:58:04.938Z,3.30
2022-12-05T23:00:34.823Z,3.30
2022-12-05T23:03:04.847Z,3.30
2022-12-05T23:05:35.025Z,3.30
2022-12-05T23:08:05.049Z,3.30
2022-12-05T23:10:39.199Z,3.30
2022-12-05T23:13:09.766Z,3.30
2022-12-05T23:15:41.344Z,3.20
2022-12-05T23:18:11.406Z,3.20
2022-12-05T23:20:41.336Z,3.20
2022-12-05T23:23:11.349Z,3.20
2022-12-05T23:25:43.961Z,3.20
2022-12-05T23:28:13.865Z,3.20
2022-12-05T23:30:43.820Z,3.20
2022-12-05T23:33:13.890Z,3.20
2022-12-05T23:35:43.910Z,3.20
2022-12-05T23:38:14.039Z,3.20
2022-12-05T23:40:46.531Z,3.20
2022-12-05T23:43:16.438Z,3.20
2022-12-05T23:45:46.346Z,3.10
2022-12-05T23:48:16.401Z,3.10
2022-12-05T23:50:46.294Z,3.20
2022-12-05T23:53:16.197Z,3.10
2022-12-05T23:55:48.670Z,3.10
2022-12-05T23:58:18.536Z,3.10
